Terminal Aerodrome Forecast
Issued by NWS Burlington, VT

Home | Current Version | Previous Version | Text Only | Print | Product List | Glossary On
Versions: 1 2 3 4 5 6 7 8 9 10 11 12 13 14 15 16
000
FTUS41 KBTV 260537
TAFBTV
TAF
KBTV 260537Z 2606/2706 28012G24KT P6SM OVC040
     FM261000 24009KT P6SM OVC035
     FM261500 23008KT P6SM BKN045
     FM270300 VRB05KT P6SM BKN035 OVC040=

USA.gov is the U.S. government's official web portal to all federal, state and local government web resources and services.